Time;durP1;ratioP1;P1;durP2;ratioP2;P2;SDS_P1;SDS_P2;PMS_P1;PMS_P2;Temp;Humidity;BMP_temperature;BMP_pressure;BME280_temperature;BME280_humidity;BME280_pressure;Samples;Min_cycle;Max_cycle;Signal;HPM_P1;HPM_P2
2021/10/15 00:02:06;;;;;;;;;;;13.30;99.90;;;;;;8388223;28;20410;-73
2021/10/15 00:06:08;;;;;;;;;;;13.30;99.90;;;;;;8392280;28;19971;-72
2021/10/15 00:10:10;;;;;;;;;;;13.30;99.90;;;;;;8376469;28;19928;-72
2021/10/15 00:14:12;;;;;;;;;;;13.30;99.90;;;;;;8386951;28;19940;-73
2021/10/15 00:18:14;;;;;;;;;;;13.20;99.90;;;;;;8387687;28;19928;-73
2021/10/15 00:22:15;;;;;;;;;;;13.20;99.90;;;;;;8403470;28;19995;-73
2021/10/15 00:26:17;;;;;;;;;;;13.20;99.90;;;;;;8389909;28;19928;-73
2021/10/15 00:30:19;;;;;;;;;;;13.20;99.90;;;;;;8391291;28;20386;-73
2021/10/15 00:34:20;;;;;;;;;;;13.20;99.90;;;;;;8403457;28;19933;-73
2021/10/15 00:38:22;;;;;;;;;;;13.20;99.90;;;;;;8391381;28;19977;-73
2021/10/15 00:42:24;;;;;;;;;;;13.20;99.90;;;;;;8405702;28;19995;-73
2021/10/15 00:46:26;;;;;;;;;;;13.10;99.90;;;;;;8391765;28;19920;-73
2021/10/15 00:50:27;;;;;;;;;;;13.10;99.90;;;;;;8408358;28;20283;-73
2021/10/15 00:54:29;;;;;;;;;;;13.10;99.90;;;;;;8392994;28;19920;-73
2021/10/15 00:58:31;;;;;;;;;;;13.20;99.90;;;;;;8383909;28;20232;-73
2021/10/15 01:02:32;;;;;;;;;;;13.10;99.90;;;;;;8385536;28;19928;-73
2021/10/15 01:06:35;;;;;;;;;;;13.20;99.90;;;;;;8389045;28;19920;-73
2021/10/15 01:10:36;;;;;;;;;;;13.20;99.90;;;;;;8390855;28;19943;-73
2021/10/15 01:14:38;;;;;;;;;;;13.20;99.90;;;;;;8369539;28;19935;-73
2021/10/15 01:18:41;;;;;;;;;;;13.20;99.90;;;;;;8389916;28;19925;-73
2021/10/15 01:22:42;;;;;;;;;;;13.20;99.90;;;;;;8386305;28;20394;-73
2021/10/15 01:26:44;;;;;;;;;;;13.20;99.90;;;;;;8389374;28;20434;-73
2021/10/15 01:30:46;;;;;;;;;;;13.20;99.90;;;;;;8373795;28;20425;-73
2021/10/15 01:34:48;;;;;;;;;;;13.20;99.90;;;;;;8381571;28;19935;-73
2021/10/15 01:38:49;;;;;;;;;;;13.20;99.90;;;;;;8373958;28;19920;-73
2021/10/15 01:42:54;;;;;;;;;;;13.20;99.90;;;;;;8388563;28;19936;-73
2021/10/15 01:46:56;;;;;;;;;;;13.20;99.90;;;;;;8390001;28;19920;-73
2021/10/15 01:50:58;;;;;;;;;;;13.20;99.90;;;;;;8390833;28;20357;-72
2021/10/15 01:54:59;;;;;;;;;;;13.20;99.90;;;;;;8385838;28;20394;-73
2021/10/15 01:59:01;;;;;;;;;;;13.20;99.90;;;;;;8375386;28;19928;-73
2021/10/15 02:03:03;;;;;;;;;;;13.20;99.90;;;;;;8384079;28;19928;-72
2021/10/15 02:07:05;;;;;;;;;;;13.10;99.90;;;;;;8368467;28;19920;-73
2021/10/15 02:11:06;;;;;;;;;;;13.10;99.90;;;;;;8350143;28;1025550;-73
2021/10/15 02:15:09;;;;;;;;;;;13.10;99.90;;;;;;8401138;28;19924;-73
2021/10/15 02:19:11;;;;;;;;;;;13.10;99.90;;;;;;8404333;28;19920;-73
2021/10/15 02:23:12;;;;;;;;;;;13.10;99.90;;;;;;8391125;28;19942;-73
2021/10/15 02:27:14;;;;;;;;;;;13.10;99.90;;;;;;8370542;28;20352;-73
2021/10/15 02:31:16;;;;;;;;;;;13.10;99.90;;;;;;8379137;28;20540;-72
2021/10/15 02:35:18;;;;;;;;;;;13.20;99.90;;;;;;8388161;28;19928;-72
2021/10/15 02:39:19;;;;;;;;;;;13.20;99.90;;;;;;8399532;28;19921;-73
2021/10/15 02:43:21;;;;;;;;;;;13.20;99.90;;;;;;8388940;28;19920;-73
2021/10/15 02:47:23;;;;;;;;;;;13.20;99.90;;;;;;8389390;28;19928;-72
2021/10/15 02:51:25;;;;;;;;;;;13.10;99.90;;;;;;8387663;28;19924;-72
2021/10/15 02:55:26;;;;;;;;;;;13.10;99.90;;;;;;8390413;28;19920;-73
2021/10/15 02:59:28;;;;;;;;;;;13.10;99.90;;;;;;8389583;28;19928;-73
2021/10/15 03:03:30;;;;;;;;;;;13.10;99.90;;;;;;8380337;28;19928;-73
2021/10/15 03:07:34;;;;;;;;;;;13.10;99.90;;;;;;8389871;28;19920;-73
2021/10/15 03:11:36;;;;;;;;;;;13.10;99.90;;;;;;8391293;28;19944;-73
2021/10/15 03:15:37;;;;;;;;;;;13.10;99.90;;;;;;8394577;28;19927;-73
2021/10/15 03:19:39;;;;;;;;;;;13.10;99.90;;;;;;8390727;28;19931;-73
2021/10/15 03:23:41;;;;;;;;;;;13.10;99.90;;;;;;8378382;28;19928;-73
2021/10/15 03:27:42;;;;;;;;;;;13.10;99.90;;;;;;8394741;28;20405;-73
2021/10/15 03:31:44;;;;;;;;;;;13.10;99.90;;;;;;8392220;28;20286;-72
2021/10/15 03:35:45;;;;;;;;;;;13.10;99.90;;;;;;8393695;28;19920;-73
2021/10/15 03:39:47;;;;;;;;;;;13.10;99.90;;;;;;8392744;28;19951;-73
2021/10/15 03:43:49;;;;;;;;;;;13.10;99.90;;;;;;8394785;28;19924;-73
2021/10/15 03:47:50;;;;;;;;;;;13.10;99.90;;;;;;8393973;28;19927;-73
2021/10/15 03:51:52;;;;;;;;;;;13.10;99.90;;;;;;8391337;28;19920;-73
2021/10/15 03:55:54;;;;;;;;;;;13.10;99.90;;;;;;8389888;28;19925;-73
2021/10/15 03:59:55;;;;;;;;;;;13.10;99.90;;;;;;8390237;28;19921;-73
2021/10/15 04:03:57;;;;;;;;;;;13.10;99.90;;;;;;8385899;28;19921;-73
2021/10/15 04:07:58;;;;;;;;;;;13.00;99.90;;;;;;8387287;28;19928;-73
2021/10/15 04:12:00;;;;;;;;;;;13.10;99.90;;;;;;8389220;28;19983;-72
2021/10/15 04:16:02;;;;;;;;;;;13.10;99.90;;;;;;8357353;28;19943;-73
2021/10/15 04:20:05;;;;;;;;;;;13.10;99.90;;;;;;8350853;28;20628;-72
2021/10/15 04:24:06;;;;;;;;;;;13.10;99.90;;;;;;8356834;28;19971;-73
2021/10/15 04:28:08;;;;;;;;;;;13.10;99.90;;;;;;8359551;28;19921;-73
2021/10/15 04:32:10;;;;;;;;;;;13.10;99.90;;;;;;8358733;28;19925;-73
2021/10/15 04:36:11;;;;;;;;;;;13.10;99.90;;;;;;8356306;28;19928;-73
2021/10/15 04:40:13;;;;;;;;;;;13.10;99.90;;;;;;8357151;28;19978;-73
2021/10/15 04:44:15;;;;;;;;;;;13.10;99.90;;;;;;8354359;28;19924;-73
2021/10/15 04:48:16;;;;;;;;;;;13.10;99.90;;;;;;8352615;28;20284;-73
2021/10/15 04:52:18;;;;;;;;;;;13.10;99.90;;;;;;8353156;28;20372;-73
2021/10/15 04:56:20;;;;;;;;;;;13.10;99.90;;;;;;8348311;28;19921;-73
2021/10/15 05:00:22;;;;;;;;;;;13.10;99.90;;;;;;8355551;28;19928;-72
2021/10/15 05:04:23;;;;;;;;;;;13.20;99.90;;;;;;8355527;28;19920;-73
2021/10/15 05:08:31;;;;;;;;;;;13.20;99.90;;;;;;8352699;28;20435;-72
2021/10/15 05:12:32;;;;;;;;;;;13.20;99.90;;;;;;8384143;28;20276;-73
2021/10/15 05:16:34;;;;;;;;;;;13.20;99.90;;;;;;8383348;28;19920;-73
2021/10/15 05:20:36;;;;;;;;;;;13.30;99.90;;;;;;8383084;28;19951;-73
2021/10/15 05:24:38;;;;;;;;;;;13.30;99.90;;;;;;8392118;28;19928;-73
2021/10/15 05:28:39;;;;;;;;;;;13.30;99.90;;;;;;8386004;28;19934;-73
2021/10/15 05:32:41;;;;;;;;;;;13.30;99.90;;;;;;8382020;28;20390;-73
2021/10/15 05:36:43;;;;;;;;;;;13.30;99.90;;;;;;8382425;28;19932;-73
2021/10/15 05:40:44;;;;;;;;;;;13.40;99.90;;;;;;8369371;28;19979;-73
2021/10/15 05:44:47;;;;;;;;;;;13.40;99.90;;;;;;8384785;28;19974;-73
2021/10/15 05:48:49;;;;;;;;;;;13.40;99.90;;;;;;8385391;28;19924;-73
2021/10/15 05:52:51;;;;;;;;;;;13.40;99.90;;;;;;8388114;28;19920;-73
2021/10/15 06:01:07;;;;;;;;;;;13.40;99.90;;;;;;8384938;28;19936;-72
2021/10/15 06:18:09;;;;;;;;;;;13.40;99.90;;;;;;8380328;28;19928;-72
2021/10/15 06:22:11;;;;;;;;;;;13.40;99.90;;;;;;8376874;28;19947;-72
2021/10/15 06:26:13;;;;;;;;;;;13.40;99.90;;;;;;8382948;28;19921;-72
2021/10/15 06:30:14;;;;;;;;;;;13.40;99.90;;;;;;8383461;28;19925;-72
2021/10/15 06:34:18;;;;;;;;;;;13.40;99.90;;;;;;8384182;28;19998;-72
2021/10/15 06:38:19;;;;;;;;;;;13.40;99.90;;;;;;8370881;28;19928;-72
2021/10/15 06:42:21;;;;;;;;;;;13.40;99.90;;;;;;8391309;28;19920;-72
2021/10/15 06:46:23;;;;;;;;;;;13.20;99.90;;;;;;8395405;28;19928;-72
2021/10/15 06:50:25;;;;;;;;;;;13.10;99.90;;;;;;8390531;28;19963;-72
2021/10/15 06:54:26;;;;;;;;;;;13.00;99.90;;;;;;8389758;28;20278;-72
2021/10/15 06:58:28;;;;;;;;;;;13.00;99.90;;;;;;8389172;28;19929;-72
2021/10/15 07:02:30;;;;;;;;;;;12.90;99.90;;;;;;8376830;28;19924;-73
2021/10/15 07:06:32;;;;;;;;;;;12.80;99.90;;;;;;8392454;28;19924;-72
2021/10/15 07:10:33;;;;;;;1.10;0.45;;;12.70;99.90;;;;;;8388151;28;20014;-72
2021/10/15 07:14:35;;;;;;;;;;;12.60;99.90;;;;;;8387015;28;19955;-72
2021/10/15 07:18:42;;;;;;;;;;;12.50;99.90;;;;;;8389970;28;19921;-72
2021/10/15 07:22:43;;;;;;;;;;;12.40;99.90;;;;;;8404319;28;19935;-72
2021/10/15 07:26:45;;;;;;;;;;;12.40;99.90;;;;;;8391940;28;19924;-72
2021/10/15 07:30:47;;;;;;;2.25;0.55;;;12.30;99.90;;;;;;8393661;28;20575;-73
2021/10/15 07:34:49;;;;;;;2.80;0.70;;;12.30;99.90;;;;;;8392864;28;20488;-72
2021/10/15 07:38:51;;;;;;;;;;;12.40;99.90;;;;;;8387696;28;20014;-72
2021/10/15 07:42:52;;;;;;;;;;;12.30;99.90;;;;;;8389382;28;19932;-72
2021/10/15 07:46:54;;;;;;;;;;;12.40;99.90;;;;;;8394848;28;19935;-72
2021/10/15 07:50:56;;;;;;;;;;;12.40;99.90;;;;;;8390196;28;19920;-72
2021/10/15 07:54:57;;;;;;;;;;;12.40;99.90;;;;;;8392520;28;19951;-72
2021/10/15 07:59:00;;;;;;;;;;;12.40;99.90;;;;;;8391937;28;19920;-72
2021/10/15 08:03:02;;;;;;;;;;;12.40;99.90;;;;;;8391467;28;19923;-72
2021/10/15 08:07:04;;;;;;;;;;;12.40;99.90;;;;;;8375717;28;19920;-72
2021/10/15 08:11:05;;;;;;;;;;;12.40;99.90;;;;;;8391695;28;19944;-72
2021/10/15 08:15:08;;;;;;;;;;;12.40;99.90;;;;;;8390841;28;19931;-71
2021/10/15 08:19:13;;;;;;;;;;;12.40;99.90;;;;;;8385608;28;20000;-73
2021/10/15 08:23:14;;;;;;;;;;;12.40;99.90;;;;;;8382844;28;19925;-72
2021/10/15 08:27:16;;;;;;;;;;;12.50;99.90;;;;;;8388356;28;19959;-72
2021/10/15 08:31:18;;;;;;;;;;;12.50;99.90;;;;;;8387374;28;19970;-72
2021/10/15 08:35:21;;;;;;;;;;;12.60;99.90;;;;;;8390207;28;19924;-71
2021/10/15 08:39:27;;;;;;;;;;;12.60;99.90;;;;;;8391057;28;19928;-72
2021/10/15 08:43:36;;;;;;;;;;;12.60;99.90;;;;;;8379895;28;20320;-71
2021/10/15 08:47:37;;;;;;;;;;;12.70;99.90;;;;;;8383568;28;20364;-72
2021/10/15 08:51:59;;;;;;;;;;;12.70;99.90;;;;;;8384010;28;19920;-71
2021/10/15 08:56:04;;;;;;;;;;;12.70;99.90;;;;;;8389661;28;19936;-71
2021/10/15 09:00:22;;;;;;;;;;;12.70;99.90;;;;;;8403814;28;19920;-71
2021/10/15 09:04:24;;;;;;;;;;;12.80;99.90;;;;;;8383927;28;20421;-71
2021/10/15 09:08:27;;;;;;;;;;;12.80;99.90;;;;;;8388457;28;19975;-71
2021/10/15 09:12:39;;;;;;;;;;;12.80;99.90;;;;;;8366335;28;19920;-72
2021/10/15 09:17:06;;;;;;;4.78;1.15;;;12.90;99.90;;;;;;8387339;28;20315;-71
2021/10/15 09:21:15;;;;;;;;;;;13.20;99.90;;;;;;8362192;28;20071;-71
2021/10/15 09:25:17;;;;;;;;;;;13.70;99.90;;;;;;8386251;28;20287;-72
2021/10/15 09:29:23;;;;;;;;;;;14.10;99.90;;;;;;8382788;28;20003;-71
2021/10/15 09:33:25;;;;;;;;;;;14.30;99.90;;;;;;8366579;28;19927;-71
2021/10/15 09:37:28;;;;;;;;;;;14.40;99.90;;;;;;8381792;28;19924;-72
2021/10/15 09:41:36;;;;;;;;;;;14.50;99.90;;;;;;8401141;28;20240;-71
2021/10/15 09:45:39;;;;;;;;;;;14.70;99.90;;;;;;8388371;28;19921;-71
2021/10/15 09:49:47;;;;;;;;;;;14.80;99.90;;;;;;8390774;28;19933;-71
2021/10/15 09:54:07;;;;;;;;;;;14.70;99.90;;;;;;8378660;28;20051;-71
2021/10/15 09:58:11;;;;;;;6.07;1.08;;;14.70;99.90;;;;;;8384415;28;19920;-72
2021/10/15 10:02:13;;;;;;;8.80;1.70;;;14.70;99.90;;;;;;8363048;28;20040;-72
2021/10/15 10:06:15;;;;;;;;;;;14.70;99.90;;;;;;8383928;28;19982;-72
2021/10/15 10:10:19;;;;;;;;;;;14.80;99.90;;;;;;8385810;28;19924;-71
2021/10/15 10:14:20;;;;;;;;;;;15.00;99.90;;;;;;8384873;28;19931;-72
2021/10/15 10:18:29;;;;;;;;;;;15.10;99.90;;;;;;8390606;28;19970;-72
2021/10/15 10:22:31;;;;;;;;;;;15.30;99.90;;;;;;8390714;28;19928;-72
2021/10/15 10:26:45;;;;;;;;;;;15.40;99.90;;;;;;8393389;28;19920;-72
2021/10/15 10:30:50;;;;;;;5.80;1.20;;;15.50;99.90;;;;;;8386361;28;19921;-72
2021/10/15 10:34:52;;;;;;;6.40;1.27;;;15.60;99.90;;;;;;8377703;28;19940;-73
2021/10/15 10:38:54;;;;;;;;;;;15.70;99.90;;;;;;8388075;28;19921;-71
2021/10/15 10:43:03;;;;;;;;;;;15.70;99.90;;;;;;8371783;28;20368;-73
2021/10/15 10:47:06;;;;;;;;;;;15.80;99.90;;;;;;8386042;28;19929;-72
2021/10/15 10:51:11;;;;;;;;;;;15.80;99.90;;;;;;8375825;28;19920;-71
2021/10/15 10:55:32;;;;;;;;;;;15.60;99.90;;;;;;8391680;28;21835;-71
2021/10/15 10:59:34;;;;;;;;;;;15.50;99.90;;;;;;8391164;28;20288;-71
2021/10/15 11:03:35;;;;;;;;;;;15.50;99.90;;;;;;8370461;28;19927;-71
2021/10/15 11:07:37;;;;;;;;;;;15.60;99.90;;;;;;8404859;28;19925;-71
2021/10/15 11:11:39;;;;;;;;;;;15.90;99.90;;;;;;8386360;28;19925;-71
2021/10/15 11:15:40;;;;;;;;;;;16.20;99.90;;;;;;8403687;28;19939;-71
2021/10/15 11:19:42;;;;;;;;;;;16.20;99.90;;;;;;8381502;28;20741;-72
2021/10/15 11:23:44;;;;;;;;;;;16.10;99.90;;;;;;8387825;28;19924;-71
2021/10/15 11:27:50;;;;;;;;;;;15.80;99.90;;;;;;8388883;28;19932;-71
2021/10/15 11:31:55;;;;;;;;;;;15.60;99.90;;;;;;8369703;28;20356;-71
2021/10/15 11:35:57;;;;;;;;;;;15.40;99.90;;;;;;8394349;28;20021;-71
2021/10/15 11:40:12;;;;;;;;;;;15.20;99.90;;;;;;8395205;28;19920;-71
2021/10/15 11:44:13;;;;;;;;;;;15.10;99.90;;;;;;8382721;28;19929;-71
2021/10/15 11:48:19;;;;;;;7.20;1.20;;;14.90;99.90;;;;;;8389035;28;19939;-71
2021/10/15 11:52:28;;;;;;;;;;;14.90;99.90;;;;;;8382529;28;19936;-72
2021/10/15 11:56:31;;;;;;;;;;;15.20;99.90;;;;;;8387662;28;20301;-71
2021/10/15 12:00:33;;;;;;;;;;;15.50;99.90;;;;;;8387196;28;19924;-72
2021/10/15 12:04:35;;;;;;;;;;;15.70;99.90;;;;;;8384327;28;19927;-71
2021/10/15 12:08:37;;;;;;;;;;;15.70;99.90;;;;;;8392337;28;19927;-72
2021/10/15 12:12:39;;;;;;;;;;;15.60;99.90;;;;;;8373348;28;20462;-72
2021/10/15 12:16:40;;;;;;;;;;;15.40;99.90;;;;;;8388774;28;19934;-72
2021/10/15 12:20:42;;;;;;;;;;;15.20;99.90;;;;;;8367532;28;19977;-72
2021/10/15 12:24:43;;;;;;;;;;;15.00;99.90;;;;;;8392381;28;19921;-72
2021/10/15 12:28:45;;;;;;;9.60;1.50;;;14.90;99.90;;;;;;8385827;28;19932;-72
2021/10/15 12:32:47;;;;;;;10.93;1.42;;;14.70;99.90;;;;;;8382615;28;20040;-72
2021/10/15 12:36:51;;;;;;;8.95;1.40;;;14.70;99.90;;;;;;8380346;28;20051;-71
2021/10/15 12:40:54;;;;;;;8.98;1.35;;;14.70;99.90;;;;;;8369354;28;20381;-72
2021/10/15 12:45:07;;;;;;;7.00;1.30;;;14.90;99.90;;;;;;8390144;28;20055;-72
2021/10/15 12:49:09;;;;;;;;;;;15.10;99.90;;;;;;8392163;28;20055;-72
2021/10/15 12:53:18;;;;;;;;;;;15.40;99.90;;;;;;8392761;28;19931;-72
2021/10/15 12:57:33;;;;;;;;;;;15.60;99.90;;;;;;8379223;28;19932;-72
2021/10/15 13:01:34;;;;;;;;;;;15.70;99.90;;;;;;8382836;28;19927;-73
2021/10/15 13:05:36;;;;;;;;;;;15.60;99.90;;;;;;8397244;28;20641;-72
2021/10/15 13:09:39;;;;;;;;;;;15.40;99.90;;;;;;8398709;28;20229;-72
2021/10/15 13:13:41;;;;;;;;;;;15.30;99.90;;;;;;8382426;28;19921;-72
2021/10/15 13:17:43;;;;;;;;;;;15.30;99.90;;;;;;8388325;28;19924;-72
2021/10/15 13:21:44;;;;;;;;;;;15.30;99.90;;;;;;8393689;28;19921;-72
2021/10/15 13:28:14;;;;;;;;;;;15.50;99.90;;;;;;8367916;28;19941;-73
2021/10/15 13:32:16;;;;;;;;;;;15.60;99.90;;;;;;8347426;28;19925;-73
2021/10/15 13:36:19;;;;;;;;;;;15.70;99.90;;;;;;8357032;28;20056;-73
2021/10/15 13:40:23;;;;;;;;;;;15.70;99.90;;;;;;8346027;28;19925;-72
2021/10/15 13:53:06;;;;;;;;;;;15.90;99.90;;;;;;8351518;28;19929;-72
2021/10/15 13:57:19;;;;;;;;;;;16.00;99.90;;;;;;8354302;28;19932;-73
2021/10/15 14:01:24;;;;;;;;;;;16.00;99.90;;;;;;8353034;28;20407;-73
2021/10/15 14:05:26;;;;;;;;;;;16.10;99.90;;;;;;8352373;28;20027;-73
2021/10/15 14:09:27;;;;;;;;;;;16.20;99.90;;;;;;8367310;28;19925;-73
2021/10/15 14:13:30;;;;;;;;;;;16.30;99.90;;;;;;8350390;28;19928;-73
2021/10/15 14:17:31;;;;;;;;;;;16.10;99.90;;;;;;8358671;28;19924;-72
2021/10/15 14:21:33;;;;;;;;;;;16.00;99.90;;;;;;8352450;28;19921;-72
2021/10/15 14:25:35;;;;;;;;;;;16.10;99.90;;;;;;8352155;28;20353;-72
2021/10/15 14:29:37;;;;;;;;;;;16.10;99.90;;;;;;8352100;28;19921;-72
2021/10/15 14:33:39;;;;;;;;;;;16.10;99.90;;;;;;8377405;28;20024;-73
2021/10/15 14:37:40;;;;;;;;;;;16.10;99.90;;;;;;8345148;28;20282;-72
2021/10/15 14:41:42;;;;;;;;;;;16.20;99.90;;;;;;8336198;28;19921;-72
2021/10/15 14:46:03;;;;;;;;;;;16.20;99.90;;;;;;8328834;28;19925;-72
2021/10/15 14:50:05;;;;;;;;;;;16.20;99.90;;;;;;8328899;28;19925;-72
2021/10/15 14:54:08;;;;;;;;;;;16.00;99.90;;;;;;8321925;28;20296;-72
2021/10/15 14:58:09;;;;;;;;;;;16.00;99.90;;;;;;8319604;28;19922;-73
2021/10/15 15:02:11;;;;;;;;;;;15.90;99.90;;;;;;8328737;28;20266;-71
2021/10/15 15:06:13;;;;;;;;;;;15.90;99.90;;;;;;8330849;28;19921;-72
2021/10/15 15:10:15;;;;;;;;;;;15.80;99.90;;;;;;8324806;28;20355;-72
2021/10/15 15:14:35;;;;;;;;;;;15.70;99.90;;;;;;8323372;28;19928;-72
2021/10/15 15:18:37;;;;;;;;;;;15.60;99.90;;;;;;8328821;28;19921;-72
2021/10/15 15:22:38;;;;;;;;;;;15.60;99.90;;;;;;8313635;28;19922;-72
2021/10/15 15:26:40;;;;;;;;;;;15.60;99.90;;;;;;8322367;28;19952;-72
2021/10/15 15:30:42;;;;;;;;;;;15.50;99.90;;;;;;8312567;28;20274;-72
2021/10/15 15:34:44;;;;;;;;;;;15.40;99.90;;;;;;8307961;28;19940;-72
2021/10/15 15:38:45;;;;;;;;;;;15.40;99.90;;;;;;8307448;28;20395;-72
2021/10/15 15:42:47;;;;;;;;;;;15.40;99.90;;;;;;8308728;28;19921;-72
2021/10/15 15:46:57;;;;;;;;;;;15.30;99.90;;;;;;8308033;28;19921;-72
2021/10/15 15:50:58;;;;;;;;;;;15.30;99.90;;;;;;8302480;28;19928;-72
2021/10/15 15:55:00;;;;;;;;;;;15.30;99.90;;;;;;8308097;28;19929;-72
2021/10/15 15:59:02;;;;;;;;;;;15.30;99.90;;;;;;8313472;28;19932;-72
2021/10/15 16:03:08;;;;;;;;;;;15.20;99.90;;;;;;8309759;28;19948;-72
2021/10/15 16:07:09;;;;;;;;;;;15.10;99.90;;;;;;8310370;28;19923;-72
2021/10/15 16:11:11;;;;;;;;;;;15.00;99.90;;;;;;8294140;28;20300;-72
2021/10/15 16:15:13;;;;;;;;;;;14.90;99.90;;;;;;8287954;28;19925;-72
2021/10/15 16:19:14;;;;;;;;;;;14.80;99.90;;;;;;8286170;28;19948;-72
2021/10/15 16:23:16;;;;;;;;;;;14.70;99.90;;;;;;8289917;28;20357;-72
2021/10/15 16:27:17;;;;;;;;;;;14.70;99.90;;;;;;8292030;28;19932;-72
2021/10/15 16:31:19;;;;;;;;;;;14.60;99.90;;;;;;8289639;28;19925;-72
2021/10/15 16:35:21;;;;;;;;;;;14.50;99.90;;;;;;8318843;28;20351;-72
2021/10/15 16:39:22;;;;;;;;;;;14.40;99.90;;;;;;8288863;28;20402;-72
2021/10/15 16:43:24;;;;;;;;;;;14.40;99.90;;;;;;8291334;28;19925;-72
2021/10/15 16:47:26;;;;;;;;;;;14.30;99.90;;;;;;8292537;28;19925;-72
2021/10/15 16:51:27;;;;;;;;;;;14.20;99.90;;;;;;8286591;28;20289;-72
2021/10/15 16:55:29;;;;;;;;;;;14.00;99.90;;;;;;8304769;28;19921;-72
2021/10/15 16:59:31;;;;;;;;;;;13.90;99.90;;;;;;8291576;28;19964;-72
2021/10/15 17:03:33;;;;;;;;;;;13.70;99.90;;;;;;8288111;28;19988;-71
2021/10/15 17:07:34;;;;;;;;;;;13.60;99.90;;;;;;8303878;28;19921;-72
2021/10/15 17:11:36;;;;;;;;;;;13.40;99.90;;;;;;8319766;28;20284;-71
2021/10/15 17:15:38;;;;;;;;;;;13.20;99.90;;;;;;8287760;28;19940;-72
2021/10/15 17:19:40;;;;;;;;;;;13.00;99.90;;;;;;8290122;28;19921;-72
2021/10/15 17:23:42;;;;;;;;;;;12.80;99.90;;;;;;8290043;28;19922;-72
2021/10/15 17:27:46;;;;;;;;;;;12.70;99.90;;;;;;8290249;28;19942;-71
2021/10/15 17:31:48;;;;;;;;;;;12.60;99.90;;;;;;8287388;28;20357;-72
2021/10/15 17:35:49;;;;;;;;;;;12.50;99.90;;;;;;8287408;28;20339;-71
2021/10/15 17:39:51;;;;;;;;;;;12.40;99.90;;;;;;8304160;28;19929;-72
2021/10/15 17:43:52;;;;;;;;;;;12.20;99.90;;;;;;8288054;28;20285;-72
2021/10/15 17:47:54;;;;;;;;;;;12.10;99.90;;;;;;8290822;28;19921;-72
2021/10/15 17:51:56;;;;;;;;;;;12.00;99.90;;;;;;8302022;28;19924;-72
2021/10/15 17:55:58;;;;;;;;;;;11.90;99.90;;;;;;8306057;28;20408;-72
2021/10/15 18:00:00;;;;;;;10.90;1.70;;;11.80;99.90;;;;;;8289398;28;20288;-72
2021/10/15 18:04:10;;;;;;;9.05;1.70;;;11.70;99.90;;;;;;8288289;28;20045;-72
2021/10/15 18:08:12;;;;;;;7.75;2.03;;;11.60;99.90;;;;;;8290053;28;20046;-72
2021/10/15 18:12:14;;;;;;;8.73;2.05;;;11.50;99.90;;;;;;8287433;28;20050;-72
2021/10/15 18:16:16;;;;;;;10.27;1.90;;;11.40;99.90;;;;;;8311150;28;20402;-72
2021/10/15 18:20:19;;;;;;;;;;;11.40;99.90;;;;;;8292662;28;20477;-71
2021/10/15 18:24:21;;;;;;;;;;;11.30;99.90;;;;;;8294218;28;19925;-72
2021/10/15 18:28:22;;;;;;;;;;;11.20;99.90;;;;;;8298645;28;19929;-72
2021/10/15 18:32:24;;;;;;;;;;;11.10;99.90;;;;;;8296425;28;23119;-71
2021/10/15 18:36:26;;;;;;;;;;;11.00;99.90;;;;;;8294932;28;19932;-72
2021/10/15 18:40:28;;;;;;;;;;;11.00;99.90;;;;;;8296151;28;19922;-71
2021/10/15 18:44:29;;;;;;;;;;;10.90;99.90;;;;;;8292281;28;19975;-71
2021/10/15 18:48:31;;;;;;;;;;;10.80;99.90;;;;;;8292770;28;19975;-71
2021/10/15 18:52:33;;;;;;;;;;;10.70;99.90;;;;;;8292658;28;19925;-72
2021/10/15 18:56:35;;;;;;;;;;;10.70;99.90;;;;;;8293649;28;19921;-72
2021/10/15 19:00:37;;;;;;;;;;;10.70;99.90;;;;;;8295720;28;19924;-71
2021/10/15 19:04:42;;;;;;;;;;;10.60;99.90;;;;;;8292458;28;20331;-72
2021/10/15 19:08:43;;;;;;;;;;;10.60;99.90;;;;;;8295521;28;20389;-71
2021/10/15 19:12:50;;;;;;;;;;;10.50;99.90;;;;;;8315005;28;20074;-72
2021/10/15 19:16:52;;;;;;;;;;;10.50;99.90;;;;;;8326758;28;19921;-72
2021/10/15 19:20:54;;;;;;;;;;;10.40;99.90;;;;;;8293014;28;19925;-72
2021/10/15 19:24:57;;;;;;;;;;;10.30;99.90;;;;;;8295697;28;20265;-71
2021/10/15 19:28:59;;;;;;;;;;;10.30;99.90;;;;;;8298112;28;19921;-71
2021/10/15 19:33:01;;;;;;;;;;;10.20;99.90;;;;;;8290200;28;19921;-71
2021/10/15 19:37:02;;;;;;;;;;;10.20;99.90;;;;;;8290948;28;19983;-71
2021/10/15 19:41:04;;;;;;;;;;;10.10;99.90;;;;;;8294896;28;20728;-72
2021/10/15 19:45:09;;;;;;;;;;;10.10;99.90;;;;;;8292086;28;19999;-71
2021/10/15 19:49:11;;;;;;;;;;;10.00;99.90;;;;;;8294611;28;19924;-72
2021/10/15 19:53:13;;;;;;;;;;;10.00;99.90;;;;;;8295323;28;20400;-72
2021/10/15 19:57:14;;;;;;;;;;;10.00;99.90;;;;;;8298267;28;20364;-72
2021/10/15 20:01:16;;;;;;;;;;;9.90;99.90;;;;;;8296406;28;20369;-71
2021/10/15 20:05:18;;;;;;;;;;;9.90;99.90;;;;;;8298358;28;19922;-72
2021/10/15 20:09:19;;;;;;;;;;;9.80;99.90;;;;;;8296755;28;20269;-71
2021/10/15 20:13:22;;;;;;;;;;;9.80;99.90;;;;;;8296481;28;20311;-71
2021/10/15 20:17:25;;;;;;;;;;;9.80;99.90;;;;;;8295182;28;20369;-72
2021/10/15 20:21:27;;;;;;;;;;;9.70;99.90;;;;;;8293862;28;20503;-72
2021/10/15 20:25:28;;;;;;;;;;;9.60;99.90;;;;;;8296498;28;19929;-72
2021/10/15 20:29:30;;;;;;;;;;;9.60;99.90;;;;;;8297720;28;19924;-72
2021/10/15 20:33:32;;;;;;;;;;;9.50;99.90;;;;;;8301559;28;19929;-71
2021/10/15 20:37:34;;;;;;;;;;;9.40;99.90;;;;;;8292761;28;20397;-72
2021/10/15 20:41:36;;;;;;;;;;;9.40;99.90;;;;;;8296355;28;19926;-72
2021/10/15 20:45:38;;;;;;;;;;;9.30;99.90;;;;;;8310550;28;20405;-71
2021/10/15 20:49:40;;;;;;;;;;;9.30;99.90;;;;;;8298769;28;20035;-72
2021/10/15 20:53:41;;;;;;;;;;;9.20;99.90;;;;;;8293668;28;19964;-71
2021/10/15 20:57:43;;;;;;;;;;;9.20;99.90;;;;;;8311846;28;20037;-71
2021/10/15 21:01:44;;;;;;;;;;;9.10;99.90;;;;;;8304182;28;19940;-71
2021/10/15 21:05:49;;;;;;;;;;;9.10;99.90;;;;;;8323824;28;19925;-72
2021/10/15 21:09:51;;;;;;;;;;;9.00;99.90;;;;;;8325337;28;19926;-72
2021/10/15 21:13:53;;;;;;;;;;;9.00;99.90;;;;;;8327685;28;19931;-72
2021/10/15 21:17:54;;;;;;;;;;;8.90;99.90;;;;;;8329367;28;20041;-72
2021/10/15 21:21:56;;;;;;;5.40;2.20;;;8.90;99.90;;;;;;8322635;28;20270;-72
2021/10/15 21:25:58;;;;;;;5.22;2.38;;;8.80;99.90;;;;;;8325549;28;20053;-72
2021/10/15 21:30:00;;;;;;;4.35;2.00;;;8.80;99.90;;;;;;8324460;28;20050;-71
2021/10/15 21:34:01;;;;;;;7.80;2.38;;;8.70;99.90;;;;;;8321060;28;20467;-72
2021/10/15 21:38:03;;;;;;;5.88;2.40;;;8.70;99.90;;;;;;8321544;28;20053;-72
2021/10/15 21:42:05;;;;;;;;;;;8.60;99.90;;;;;;8322335;28;20064;-72
2021/10/15 21:46:07;;;;;;;4.10;1.80;;;8.50;99.90;;;;;;8327510;28;19921;-73
2021/10/15 21:50:09;;;;;;;;;;;8.50;99.90;;;;;;8341005;28;20088;-72
2021/10/15 21:54:10;;;;;;;;;;;8.50;99.90;;;;;;8331021;28;20356;-72
2021/10/15 21:58:12;;;;;;;;;;;8.40;99.90;;;;;;8354567;28;19921;-72
2021/10/15 22:02:14;;;;;;;;;;;8.40;99.90;;;;;;8330420;28;20300;-72
2021/10/15 22:06:16;;;;;;;;;;;8.30;99.90;;;;;;8345265;28;19982;-72
2021/10/15 22:10:18;;;;;;;;;;;8.30;99.90;;;;;;8332038;28;19928;-72
2021/10/15 22:14:20;;;;;;;;;;;8.30;99.90;;;;;;8324643;28;19921;-72
2021/10/15 22:18:22;;;;;;;;;;;8.20;99.90;;;;;;8327909;28;19929;-72
2021/10/15 22:22:23;;;;;;;;;;;8.10;99.90;;;;;;8324732;28;19929;-72
2021/10/15 22:26:25;;;;;;;;;;;8.10;99.90;;;;;;8332183;28;19921;-71
2021/10/15 22:30:27;;;;;;;;;;;8.00;99.90;;;;;;8329469;28;19938;-72
2021/10/15 22:34:28;;;;;;;;;;;8.00;99.90;;;;;;8329487;28;19929;-71
2021/10/15 22:38:30;;;;;;;;;;;8.00;99.90;;;;;;8330600;28;19921;-71
2021/10/15 22:42:33;;;;;;;;;;;7.90;99.90;;;;;;8328623;28;19921;-71
2021/10/15 22:46:34;;;;;;;;;;;7.90;99.90;;;;;;8330225;28;19921;-72
2021/10/15 22:50:37;;;;;;;;;;;7.80;99.90;;;;;;8339186;28;19921;-72
2021/10/15 22:54:39;;;;;;;;;;;7.70;99.90;;;;;;8329863;28;19921;-72
2021/10/15 22:58:46;;;;;;;;;;;7.70;99.90;;;;;;8332129;28;20335;-72
2021/10/15 23:02:48;;;;;;;;;;;7.60;99.90;;;;;;8333448;28;20293;-72
2021/10/15 23:06:50;;;;;;;;;;;7.60;99.90;;;;;;8332875;28;20951;-72
2021/10/15 23:10:52;;;;;;;;;;;7.60;99.90;;;;;;8329816;28;19933;-71
2021/10/15 23:14:54;;;;;;;;;;;7.50;99.90;;;;;;8328284;28;20365;-72
2021/10/15 23:18:55;;;;;;;;;;;7.50;99.90;;;;;;8329451;28;19928;-71
2021/10/15 23:22:58;;;;;;;;;;;7.50;99.90;;;;;;8323115;28;19921;-72
2021/10/15 23:26:59;;;;;;;;;;;7.50;99.90;;;;;;8328151;28;19928;-72
2021/10/15 23:31:01;;;;;;;;;;;7.40;99.90;;;;;;8327519;28;20296;-72
2021/10/15 23:35:03;;;;;;;;;;;7.40;99.90;;;;;;8328566;28;19960;-71
2021/10/15 23:39:05;;;;;;;;;;;7.40;99.90;;;;;;8328396;28;19928;-72
2021/10/15 23:43:06;;;;;;;;;;;7.40;99.90;;;;;;8327470;28;19928;-71
2021/10/15 23:47:08;;;;;;;;;;;7.40;99.90;;;;;;8329231;28;19928;-71
2021/10/15 23:51:10;;;;;;;;;;;7.40;99.90;;;;;;8326610;28;19921;-71